sensor_id;sensor_type;location;lat;lon;timestamp;P1;durP1;ratioP1;P2;durP2;ratioP2
16737;SDS011;17906;47.684;10.806;2023-02-15T00:00:05;5.17;;;1.77;;
16737;SDS011;17906;47.684;10.806;2023-02-15T00:02:35;3.73;;;2.20;;
16737;SDS011;17906;47.684;10.806;2023-02-15T00:05:02;3.70;;;2.07;;
16737;SDS011;17906;47.684;10.806;2023-02-15T00:07:28;5.07;;;2.30;;
16737;SDS011;17906;47.684;10.806;2023-02-15T00:09:55;4.20;;;1.57;;
16737;SDS011;17906;47.684;10.806;2023-02-15T00:12:21;3.20;;;1.60;;
16737;SDS011;17906;47.684;10.806;2023-02-15T00:14:48;5.53;;;1.90;;
16737;SDS011;17906;47.684;10.806;2023-02-15T00:17:16;4.67;;;1.70;;
16737;SDS011;17906;47.684;10.806;2023-02-15T00:19:42;4.27;;;1.90;;
16737;SDS011;17906;47.684;10.806;2023-02-15T00:22:09;5.17;;;1.93;;
16737;SDS011;17906;47.684;10.806;2023-02-15T00:24:35;2.73;;;1.47;;
16737;SDS011;17906;47.684;10.806;2023-02-15T00:27:02;5.97;;;2.00;;
16737;SDS011;17906;47.684;10.806;2023-02-15T00:29:28;9.83;;;2.90;;
16737;SDS011;17906;47.684;10.806;2023-02-15T00:31:55;8.73;;;3.23;;
16737;SDS011;17906;47.684;10.806;2023-02-15T00:34:24;12.67;;;3.43;;
16737;SDS011;17906;47.684;10.806;2023-02-15T00:36:52;8.07;;;2.60;;
16737;SDS011;17906;47.684;10.806;2023-02-15T00:39:19;6.60;;;2.60;;
16737;SDS011;17906;47.684;10.806;2023-02-15T00:41:46;4.20;;;1.73;;
16737;SDS011;17906;47.684;10.806;2023-02-15T00:44:13;4.70;;;1.90;;
16737;SDS011;17906;47.684;10.806;2023-02-15T00:46:40;3.63;;;1.47;;
16737;SDS011;17906;47.684;10.806;2023-02-15T00:49:06;4.83;;;1.87;;
16737;SDS011;17906;47.684;10.806;2023-02-15T00:51:34;4.10;;;1.80;;
16737;SDS011;17906;47.684;10.806;2023-02-15T00:54:01;5.63;;;2.10;;
16737;SDS011;17906;47.684;10.806;2023-02-15T00:56:27;5.57;;;2.23;;
16737;SDS011;17906;47.684;10.806;2023-02-15T00:58:54;3.37;;;1.50;;
16737;SDS011;17906;47.684;10.806;2023-02-15T01:01:22;4.67;;;2.10;;
16737;SDS011;17906;47.684;10.806;2023-02-15T01:03:50;4.23;;;1.80;;
16737;SDS011;17906;47.684;10.806;2023-02-15T01:06:17;3.70;;;1.47;;
16737;SDS011;17906;47.684;10.806;2023-02-15T01:08:46;5.87;;;2.10;;
16737;SDS011;17906;47.684;10.806;2023-02-15T01:11:13;3.67;;;1.50;;
16737;SDS011;17906;47.684;10.806;2023-02-15T01:13:46;3.13;;;1.40;;
16737;SDS011;17906;47.684;10.806;2023-02-15T01:16:13;4.30;;;1.60;;
16737;SDS011;17906;47.684;10.806;2023-02-15T01:18:40;5.17;;;1.50;;
16737;SDS011;17906;47.684;10.806;2023-02-15T01:21:10;6.40;;;1.83;;
16737;SDS011;17906;47.684;10.806;2023-02-15T01:23:38;7.50;;;1.83;;
16737;SDS011;17906;47.684;10.806;2023-02-15T01:26:07;5.97;;;1.70;;
16737;SDS011;17906;47.684;10.806;2023-02-15T01:28:34;6.90;;;1.70;;
16737;SDS011;17906;47.684;10.806;2023-02-15T01:31:04;5.37;;;1.60;;
16737;SDS011;17906;47.684;10.806;2023-02-15T01:33:31;2.80;;;1.43;;
16737;SDS011;17906;47.684;10.806;2023-02-15T01:35:58;6.53;;;1.97;;
16737;SDS011;17906;47.684;10.806;2023-02-15T01:38:25;3.33;;;1.53;;
16737;SDS011;17906;47.684;10.806;2023-02-15T01:40:51;3.23;;;1.60;;
16737;SDS011;17906;47.684;10.806;2023-02-15T01:43:20;5.17;;;1.40;;
16737;SDS011;17906;47.684;10.806;2023-02-15T01:45:47;4.43;;;1.20;;
16737;SDS011;17906;47.684;10.806;2023-02-15T01:48:17;5.53;;;1.93;;
16737;SDS011;17906;47.684;10.806;2023-02-15T01:50:47;4.23;;;1.60;;
16737;SDS011;17906;47.684;10.806;2023-02-15T01:53:20;4.07;;;1.47;;
16737;SDS011;17906;47.684;10.806;2023-02-15T01:55:50;2.77;;;1.50;;
16737;SDS011;17906;47.684;10.806;2023-02-15T01:58:22;5.67;;;2.17;;
16737;SDS011;17906;47.684;10.806;2023-02-15T02:00:51;3.27;;;1.50;;
16737;SDS011;17906;47.684;10.806;2023-02-15T02:03:18;3.03;;;1.07;;
16737;SDS011;17906;47.684;10.806;2023-02-15T02:05:56;5.33;;;1.60;;
16737;SDS011;17906;47.684;10.806;2023-02-15T02:08:22;3.67;;;1.57;;
16737;SDS011;17906;47.684;10.806;2023-02-15T02:10:49;4.87;;;1.70;;
16737;SDS011;17906;47.684;10.806;2023-02-15T02:13:16;4.37;;;1.37;;
16737;SDS011;17906;47.684;10.806;2023-02-15T02:15:45;5.10;;;1.47;;
16737;SDS011;17906;47.684;10.806;2023-02-15T02:18:21;4.30;;;1.47;;
16737;SDS011;17906;47.684;10.806;2023-02-15T02:21:10;3.57;;;1.30;;
16737;SDS011;17906;47.684;10.806;2023-02-15T02:23:51;7.17;;;1.50;;
16737;SDS011;17906;47.684;10.806;2023-02-15T02:26:44;3.73;;;1.63;;
16737;SDS011;17906;47.684;10.806;2023-02-15T02:35:33;3.00;;;1.20;;
16737;SDS011;17906;47.684;10.806;2023-02-15T02:38:07;2.90;;;1.23;;
16737;SDS011;17906;47.684;10.806;2023-02-15T02:40:39;4.50;;;1.50;;
16737;SDS011;17906;47.684;10.806;2023-02-15T02:43:15;3.40;;;1.53;;
16737;SDS011;17906;47.684;10.806;2023-02-15T02:45:49;2.80;;;1.30;;
16737;SDS011;17906;47.684;10.806;2023-02-15T02:48:21;3.87;;;1.40;;
16737;SDS011;17906;47.684;10.806;2023-02-15T02:50:51;2.43;;;1.40;;
16737;SDS011;17906;47.684;10.806;2023-02-15T02:53:18;3.63;;;1.23;;
16737;SDS011;17906;47.684;10.806;2023-02-15T02:55:45;2.40;;;1.30;;
16737;SDS011;17906;47.684;10.806;2023-02-15T02:58:14;3.37;;;1.20;;
16737;SDS011;17906;47.684;10.806;2023-02-15T03:00:44;9.03;;;2.43;;
16737;SDS011;17906;47.684;10.806;2023-02-15T03:03:16;3.90;;;1.60;;
16737;SDS011;17906;47.684;10.806;2023-02-15T03:05:48;1.73;;;1.20;;
16737;SDS011;17906;47.684;10.806;2023-02-15T03:08:19;4.30;;;1.47;;
16737;SDS011;17906;47.684;10.806;2023-02-15T03:10:48;6.87;;;1.93;;
16737;SDS011;17906;47.684;10.806;2023-02-15T03:13:17;4.40;;;1.70;;
16737;SDS011;17906;47.684;10.806;2023-02-15T03:15:44;5.73;;;1.80;;
16737;SDS011;17906;47.684;10.806;2023-02-15T03:18:30;4.33;;;1.67;;
16737;SDS011;17906;47.684;10.806;2023-02-15T03:21:02;2.63;;;1.40;;
16737;SDS011;17906;47.684;10.806;2023-02-15T03:23:31;3.43;;;1.70;;
16737;SDS011;17906;47.684;10.806;2023-02-15T03:25:59;8.57;;;3.00;;
16737;SDS011;17906;47.684;10.806;2023-02-15T03:28:28;5.80;;;2.53;;
16737;SDS011;17906;47.684;10.806;2023-02-15T03:31:01;6.07;;;2.70;;
16737;SDS011;17906;47.684;10.806;2023-02-15T03:33:31;5.20;;;2.00;;
16737;SDS011;17906;47.684;10.806;2023-02-15T03:35:59;6.33;;;1.70;;
16737;SDS011;17906;47.684;10.806;2023-02-15T03:38:36;5.73;;;1.63;;
16737;SDS011;17906;47.684;10.806;2023-02-15T03:41:09;2.97;;;1.30;;
16737;SDS011;17906;47.684;10.806;2023-02-15T03:43:40;3.60;;;1.43;;
16737;SDS011;17906;47.684;10.806;2023-02-15T03:46:15;2.97;;;1.70;;
16737;SDS011;17906;47.684;10.806;2023-02-15T03:48:49;4.37;;;1.60;;
16737;SDS011;17906;47.684;10.806;2023-02-15T03:51:21;4.27;;;1.40;;
16737;SDS011;17906;47.684;10.806;2023-02-15T03:54:00;3.33;;;1.43;;
16737;SDS011;17906;47.684;10.806;2023-02-15T03:56:29;3.87;;;1.37;;
16737;SDS011;17906;47.684;10.806;2023-02-15T03:58:56;2.60;;;1.50;;
16737;SDS011;17906;47.684;10.806;2023-02-15T04:01:42;3.27;;;1.60;;
16737;SDS011;17906;47.684;10.806;2023-02-15T04:04:27;3.07;;;1.43;;
16737;SDS011;17906;47.684;10.806;2023-02-15T04:06:59;2.80;;;1.30;;
16737;SDS011;17906;47.684;10.806;2023-02-15T04:09:26;2.73;;;1.20;;
16737;SDS011;17906;47.684;10.806;2023-02-15T04:12:10;2.67;;;1.20;;
16737;SDS011;17906;47.684;10.806;2023-02-15T04:14:36;2.90;;;1.20;;
16737;SDS011;17906;47.684;10.806;2023-02-15T04:17:21;14.23;;;1.60;;
16737;SDS011;17906;47.684;10.806;2023-02-15T04:19:47;2.90;;;1.47;;
16737;SDS011;17906;47.684;10.806;2023-02-15T04:22:33;3.60;;;1.70;;
16737;SDS011;17906;47.684;10.806;2023-02-15T04:25:17;3.07;;;1.40;;
16737;SDS011;17906;47.684;10.806;2023-02-15T04:27:45;3.17;;;1.73;;
16737;SDS011;17906;47.684;10.806;2023-02-15T04:30:13;2.27;;;1.27;;
16737;SDS011;17906;47.684;10.806;2023-02-15T04:32:41;3.77;;;1.10;;
16737;SDS011;17906;47.684;10.806;2023-02-15T04:35:08;2.87;;;1.23;;
16737;SDS011;17906;47.684;10.806;2023-02-15T04:37:36;2.67;;;1.17;;
16737;SDS011;17906;47.684;10.806;2023-02-15T04:40:05;2.80;;;1.10;;
16737;SDS011;17906;47.684;10.806;2023-02-15T04:42:33;4.17;;;1.40;;
16737;SDS011;17906;47.684;10.806;2023-02-15T04:45:00;3.87;;;1.47;;
16737;SDS011;17906;47.684;10.806;2023-02-15T04:47:26;2.03;;;1.03;;
16737;SDS011;17906;47.684;10.806;2023-02-15T04:49:53;7.90;;;3.00;;
16737;SDS011;17906;47.684;10.806;2023-02-15T04:52:19;7.77;;;3.53;;
16737;SDS011;17906;47.684;10.806;2023-02-15T04:54:47;5.00;;;1.90;;
16737;SDS011;17906;47.684;10.806;2023-02-15T04:57:14;7.07;;;1.80;;
16737;SDS011;17906;47.684;10.806;2023-02-15T04:59:40;5.67;;;1.70;;
16737;SDS011;17906;47.684;10.806;2023-02-15T05:02:07;6.77;;;1.57;;
16737;SDS011;17906;47.684;10.806;2023-02-15T05:04:34;3.13;;;1.40;;
16737;SDS011;17906;47.684;10.806;2023-02-15T05:07:00;6.00;;;1.83;;
16737;SDS011;17906;47.684;10.806;2023-02-15T05:09:27;2.23;;;1.00;;
16737;SDS011;17906;47.684;10.806;2023-02-15T05:11:55;4.50;;;1.73;;
16737;SDS011;17906;47.684;10.806;2023-02-15T05:14:21;2.63;;;1.40;;
16737;SDS011;17906;47.684;10.806;2023-02-15T05:16:48;3.43;;;1.40;;
16737;SDS011;17906;47.684;10.806;2023-02-15T05:19:14;7.23;;;2.10;;
16737;SDS011;17906;47.684;10.806;2023-02-15T05:21:41;2.20;;;1.30;;
16737;SDS011;17906;47.684;10.806;2023-02-15T05:24:08;3.60;;;1.07;;
16737;SDS011;17906;47.684;10.806;2023-02-15T05:26:48;3.77;;;1.43;;
16737;SDS011;17906;47.684;10.806;2023-02-15T05:29:34;9.03;;;1.87;;
16737;SDS011;17906;47.684;10.806;2023-02-15T05:32:00;8.50;;;2.60;;
16737;SDS011;17906;47.684;10.806;2023-02-15T05:34:27;6.30;;;2.10;;
16737;SDS011;17906;47.684;10.806;2023-02-15T05:36:53;3.30;;;1.40;;
16737;SDS011;17906;47.684;10.806;2023-02-15T05:39:20;7.93;;;2.03;;
16737;SDS011;17906;47.684;10.806;2023-02-15T05:41:46;7.30;;;1.70;;
16737;SDS011;17906;47.684;10.806;2023-02-15T05:44:13;8.67;;;3.13;;
16737;SDS011;17906;47.684;10.806;2023-02-15T05:46:41;7.27;;;2.37;;
16737;SDS011;17906;47.684;10.806;2023-02-15T05:49:07;13.10;;;3.60;;
16737;SDS011;17906;47.684;10.806;2023-02-15T05:51:34;12.70;;;3.37;;
16737;SDS011;17906;47.684;10.806;2023-02-15T05:54:00;9.47;;;2.57;;
16737;SDS011;17906;47.684;10.806;2023-02-15T05:56:27;3.70;;;1.63;;
16737;SDS011;17906;47.684;10.806;2023-02-15T05:58:53;6.00;;;1.50;;
16737;SDS011;17906;47.684;10.806;2023-02-15T06:01:20;12.93;;;3.17;;
16737;SDS011;17906;47.684;10.806;2023-02-15T06:03:49;13.07;;;3.90;;
16737;SDS011;17906;47.684;10.806;2023-02-15T06:06:16;12.57;;;4.63;;
16737;SDS011;17906;47.684;10.806;2023-02-15T06:08:43;10.93;;;3.93;;
16737;SDS011;17906;47.684;10.806;2023-02-15T06:11:10;8.57;;;2.57;;
16737;SDS011;17906;47.684;10.806;2023-02-15T06:13:36;4.67;;;2.07;;
16737;SDS011;17906;47.684;10.806;2023-02-15T06:16:03;5.70;;;2.10;;
16737;SDS011;17906;47.684;10.806;2023-02-15T06:18:30;7.17;;;2.20;;
16737;SDS011;17906;47.684;10.806;2023-02-15T06:20:58;4.73;;;1.90;;
16737;SDS011;17906;47.684;10.806;2023-02-15T06:23:25;6.00;;;2.00;;
16737;SDS011;17906;47.684;10.806;2023-02-15T06:25:51;8.60;;;2.40;;
16737;SDS011;17906;47.684;10.806;2023-02-15T06:28:18;12.43;;;3.60;;
16737;SDS011;17906;47.684;10.806;2023-02-15T06:30:44;10.13;;;3.27;;
16737;SDS011;17906;47.684;10.806;2023-02-15T06:33:11;8.53;;;2.97;;
16737;SDS011;17906;47.684;10.806;2023-02-15T06:35:38;9.43;;;3.30;;
16737;SDS011;17906;47.684;10.806;2023-02-15T06:38:06;10.70;;;2.93;;
16737;SDS011;17906;47.684;10.806;2023-02-15T06:40:32;11.07;;;4.07;;
16737;SDS011;17906;47.684;10.806;2023-02-15T06:42:59;14.50;;;4.93;;
16737;SDS011;17906;47.684;10.806;2023-02-15T06:45:26;15.37;;;4.23;;
16737;SDS011;17906;47.684;10.806;2023-02-15T06:47:52;14.93;;;4.37;;
16737;SDS011;17906;47.684;10.806;2023-02-15T06:50:19;16.33;;;4.17;;
16737;SDS011;17906;47.684;10.806;2023-02-15T06:52:45;16.90;;;4.07;;
16737;SDS011;17906;47.684;10.806;2023-02-15T06:55:13;10.23;;;2.90;;
16737;SDS011;17906;47.684;10.806;2023-02-15T06:57:40;10.47;;;4.00;;
16737;SDS011;17906;47.684;10.806;2023-02-15T07:00:07;5.77;;;2.50;;
16737;SDS011;17906;47.684;10.806;2023-02-15T07:02:34;13.70;;;3.87;;
16737;SDS011;17906;47.684;10.806;2023-02-15T07:05:01;14.70;;;5.23;;
16737;SDS011;17906;47.684;10.806;2023-02-15T07:07:27;14.63;;;4.77;;
16737;SDS011;17906;47.684;10.806;2023-02-15T07:09:54;12.57;;;4.87;;
16737;SDS011;17906;47.684;10.806;2023-02-15T07:12:22;12.37;;;4.67;;
16737;SDS011;17906;47.684;10.806;2023-02-15T07:15:06;14.40;;;4.53;;
16737;SDS011;17906;47.684;10.806;2023-02-15T07:17:34;14.43;;;5.00;;
16737;SDS011;17906;47.684;10.806;2023-02-15T07:20:01;14.40;;;5.00;;
16737;SDS011;17906;47.684;10.806;2023-02-15T07:22:27;11.33;;;4.70;;
16737;SDS011;17906;47.684;10.806;2023-02-15T07:24:54;12.50;;;5.60;;
16737;SDS011;17906;47.684;10.806;2023-02-15T07:27:22;17.70;;;5.63;;
16737;SDS011;17906;47.684;10.806;2023-02-15T07:29:48;18.07;;;5.93;;
16737;SDS011;17906;47.684;10.806;2023-02-15T07:32:15;12.80;;;6.07;;
16737;SDS011;17906;47.684;10.806;2023-02-15T07:34:41;12.10;;;5.13;;
16737;SDS011;17906;47.684;10.806;2023-02-15T07:37:08;12.43;;;5.17;;
16737;SDS011;17906;47.684;10.806;2023-02-15T07:39:35;15.47;;;5.40;;
16737;SDS011;17906;47.684;10.806;2023-02-15T07:42:01;17.43;;;5.90;;
16737;SDS011;17906;47.684;10.806;2023-02-15T07:44:30;11.50;;;5.10;;
16737;SDS011;17906;47.684;10.806;2023-02-15T07:46:57;10.60;;;5.37;;
16737;SDS011;17906;47.684;10.806;2023-02-15T07:49:23;10.90;;;5.60;;
16737;SDS011;17906;47.684;10.806;2023-02-15T07:51:50;10.00;;;5.00;;
16737;SDS011;17906;47.684;10.806;2023-02-15T07:54:16;12.50;;;5.73;;
16737;SDS011;17906;47.684;10.806;2023-02-15T07:56:42;8.90;;;4.63;;
16737;SDS011;17906;47.684;10.806;2023-02-15T07:59:09;9.67;;;5.53;;
16737;SDS011;17906;47.684;10.806;2023-02-15T08:01:38;11.97;;;5.67;;
16737;SDS011;17906;47.684;10.806;2023-02-15T08:04:05;8.97;;;4.87;;
16737;SDS011;17906;47.684;10.806;2023-02-15T08:06:35;7.23;;;3.50;;
16737;SDS011;17906;47.684;10.806;2023-02-15T08:09:02;6.33;;;3.23;;
16737;SDS011;17906;47.684;10.806;2023-02-15T08:11:30;6.20;;;3.30;;
16737;SDS011;17906;47.684;10.806;2023-02-15T08:14:03;8.50;;;3.50;;
16737;SDS011;17906;47.684;10.806;2023-02-15T08:16:33;7.73;;;3.30;;
16737;SDS011;17906;47.684;10.806;2023-02-15T08:19:03;6.40;;;3.53;;
16737;SDS011;17906;47.684;10.806;2023-02-15T08:21:31;6.33;;;3.30;;
16737;SDS011;17906;47.684;10.806;2023-02-15T08:23:59;7.47;;;3.83;;
16737;SDS011;17906;47.684;10.806;2023-02-15T08:26:26;8.23;;;3.50;;
16737;SDS011;17906;47.684;10.806;2023-02-15T08:28:54;5.37;;;2.90;;
16737;SDS011;17906;47.684;10.806;2023-02-15T08:31:20;3.77;;;2.50;;
16737;SDS011;17906;47.684;10.806;2023-02-15T08:33:48;5.20;;;3.13;;
16737;SDS011;17906;47.684;10.806;2023-02-15T08:36:18;5.27;;;3.30;;
16737;SDS011;17906;47.684;10.806;2023-02-15T08:38:46;9.23;;;4.10;;
16737;SDS011;17906;47.684;10.806;2023-02-15T08:41:14;16.60;;;8.40;;
16737;SDS011;17906;47.684;10.806;2023-02-15T08:43:42;8.73;;;3.70;;
16737;SDS011;17906;47.684;10.806;2023-02-15T08:46:11;9.40;;;3.50;;
16737;SDS011;17906;47.684;10.806;2023-02-15T08:48:38;7.63;;;4.17;;
16737;SDS011;17906;47.684;10.806;2023-02-15T08:51:09;8.77;;;4.67;;
16737;SDS011;17906;47.684;10.806;2023-02-15T08:53:38;9.40;;;5.53;;
16737;SDS011;17906;47.684;10.806;2023-02-15T08:56:07;11.07;;;5.83;;
16737;SDS011;17906;47.684;10.806;2023-02-15T08:58:34;15.87;;;6.40;;
16737;SDS011;17906;47.684;10.806;2023-02-15T09:01:07;13.47;;;6.80;;
16737;SDS011;17906;47.684;10.806;2023-02-15T09:03:34;13.70;;;8.00;;
16737;SDS011;17906;47.684;10.806;2023-02-15T09:06:01;22.23;;;12.60;;
16737;SDS011;17906;47.684;10.806;2023-02-15T09:08:28;24.47;;;14.23;;
16737;SDS011;17906;47.684;10.806;2023-02-15T09:11:03;23.53;;;12.70;;
16737;SDS011;17906;47.684;10.806;2023-02-15T09:13:31;19.37;;;11.63;;
16737;SDS011;17906;47.684;10.806;2023-02-15T09:15:58;17.23;;;9.80;;
16737;SDS011;17906;47.684;10.806;2023-02-15T09:18:25;19.23;;;8.87;;
16737;SDS011;17906;47.684;10.806;2023-02-15T09:20:52;11.20;;;6.47;;
16737;SDS011;17906;47.684;10.806;2023-02-15T09:23:20;11.63;;;6.43;;
16737;SDS011;17906;47.684;10.806;2023-02-15T09:25:46;12.53;;;6.30;;
16737;SDS011;17906;47.684;10.806;2023-02-15T09:28:14;8.57;;;5.27;;
16737;SDS011;17906;47.684;10.806;2023-02-15T09:30:41;9.27;;;5.30;;
16737;SDS011;17906;47.684;10.806;2023-02-15T09:33:07;9.07;;;4.00;;
16737;SDS011;17906;47.684;10.806;2023-02-15T09:35:34;5.37;;;2.87;;
16737;SDS011;17906;47.684;10.806;2023-02-15T09:38:00;7.10;;;3.60;;
16737;SDS011;17906;47.684;10.806;2023-02-15T09:40:28;5.73;;;3.33;;
16737;SDS011;17906;47.684;10.806;2023-02-15T09:43:05;7.07;;;3.30;;
16737;SDS011;17906;47.684;10.806;2023-02-15T09:45:53;4.23;;;3.00;;
16737;SDS011;17906;47.684;10.806;2023-02-15T09:48:34;7.60;;;3.17;;
16737;SDS011;17906;47.684;10.806;2023-02-15T09:57:04;5.70;;;1.80;;
16737;SDS011;17906;47.684;10.806;2023-02-15T09:59:39;3.60;;;1.50;;
16737;SDS011;17906;47.684;10.806;2023-02-15T10:02:17;6.93;;;2.63;;
16737;SDS011;17906;47.684;10.806;2023-02-15T10:04:54;2.83;;;1.48;;
16737;SDS011;17906;47.684;10.806;2023-02-15T10:07:38;2.33;;;1.15;;
16737;SDS011;17906;47.684;10.806;2023-02-15T10:10:21;1.95;;;1.33;;
16737;SDS011;17906;47.684;10.806;2023-02-15T10:13:00;1.90;;;1.33;;
16737;SDS011;17906;47.684;10.806;2023-02-15T10:15:44;2.97;;;1.40;;
16737;SDS011;17906;47.684;10.806;2023-02-15T10:18:27;2.85;;;1.50;;
16737;SDS011;17906;47.684;10.806;2023-02-15T10:21:17;2.35;;;1.40;;
16737;SDS011;17906;47.684;10.806;2023-02-15T10:24:02;2.85;;;1.50;;
16737;SDS011;17906;47.684;10.806;2023-02-15T10:26:51;3.38;;;1.50;;
16737;SDS011;17906;47.684;10.806;2023-02-15T10:29:27;3.78;;;1.50;;
16737;SDS011;17906;47.684;10.806;2023-02-15T10:32:02;2.13;;;1.23;;
16737;SDS011;17906;47.684;10.806;2023-02-15T10:34:37;2.45;;;1.20;;
16737;SDS011;17906;47.684;10.806;2023-02-15T10:37:10;1.33;;;0.80;;
16737;SDS011;17906;47.684;10.806;2023-02-15T10:39:56;2.92;;;0.80;;
16737;SDS011;17906;47.684;10.806;2023-02-15T10:42:34;4.13;;;0.80;;
16737;SDS011;17906;47.684;10.806;2023-02-15T10:45:12;1.92;;;1.02;;
16737;SDS011;17906;47.684;10.806;2023-02-15T10:47:55;2.20;;;1.05;;
16737;SDS011;17906;47.684;10.806;2023-02-15T10:50:36;4.28;;;1.42;;
16737;SDS011;17906;47.684;10.806;2023-02-15T10:53:14;4.60;;;1.10;;
16737;SDS011;17906;47.684;10.806;2023-02-15T10:55:52;1.70;;;1.00;;
16737;SDS011;17906;47.684;10.806;2023-02-15T10:58:34;3.30;;;1.15;;
16737;SDS011;17906;47.684;10.806;2023-02-15T11:01:13;2.00;;;1.25;;
16737;SDS011;17906;47.684;10.806;2023-02-15T11:03:53;1.70;;;1.10;;
16737;SDS011;17906;47.684;10.806;2023-02-15T11:06:42;2.28;;;1.13;;
16737;SDS011;17906;47.684;10.806;2023-02-15T11:09:13;1.73;;;1.02;;
16737;SDS011;17906;47.684;10.806;2023-02-15T11:11:44;2.42;;;1.30;;
16737;SDS011;17906;47.684;10.806;2023-02-15T11:14:17;1.80;;;1.20;;
16737;SDS011;17906;47.684;10.806;2023-02-15T11:16:49;1.67;;;1.02;;
16737;SDS011;17906;47.684;10.806;2023-02-15T11:19:21;1.38;;;0.90;;
16737;SDS011;17906;47.684;10.806;2023-02-15T11:21:53;5.85;;;1.13;;
16737;SDS011;17906;47.684;10.806;2023-02-15T11:24:24;1.42;;;0.88;;
16737;SDS011;17906;47.684;10.806;2023-02-15T11:26:54;1.98;;;1.05;;
16737;SDS011;17906;47.684;10.806;2023-02-15T11:29:25;1.80;;;0.90;;
16737;SDS011;17906;47.684;10.806;2023-02-15T11:31:58;1.38;;;0.70;;
16737;SDS011;17906;47.684;10.806;2023-02-15T11:34:31;1.40;;;0.60;;
16737;SDS011;17906;47.684;10.806;2023-02-15T11:37:01;2.30;;;0.85;;
16737;SDS011;17906;47.684;10.806;2023-02-15T11:39:33;1.05;;;0.80;;
16737;SDS011;17906;47.684;10.806;2023-02-15T11:42:04;1.98;;;0.88;;
16737;SDS011;17906;47.684;10.806;2023-02-15T11:44:37;1.25;;;0.68;;
16737;SDS011;17906;47.684;10.806;2023-02-15T11:47:09;1.45;;;0.80;;
16737;SDS011;17906;47.684;10.806;2023-02-15T11:49:39;2.40;;;0.90;;
16737;SDS011;17906;47.684;10.806;2023-02-15T11:52:06;1.67;;;0.70;;
16737;SDS011;17906;47.684;10.806;2023-02-15T11:54:37;1.55;;;0.90;;
16737;SDS011;17906;47.684;10.806;2023-02-15T11:57:10;0.95;;;0.75;;
16737;SDS011;17906;47.684;10.806;2023-02-15T11:59:42;1.92;;;0.80;;
16737;SDS011;17906;47.684;10.806;2023-02-15T12:02:15;1.48;;;0.75;;
16737;SDS011;17906;47.684;10.806;2023-02-15T12:04:46;5.22;;;1.02;;
16737;SDS011;17906;47.684;10.806;2023-02-15T12:07:19;1.17;;;0.88;;
16737;SDS011;17906;47.684;10.806;2023-02-15T12:09:51;2.05;;;0.93;;
16737;SDS011;17906;47.684;10.806;2023-02-15T12:12:26;2.20;;;1.15;;
16737;SDS011;17906;47.684;10.806;2023-02-15T12:14:54;1.85;;;1.00;;
16737;SDS011;17906;47.684;10.806;2023-02-15T12:17:22;1.70;;;0.90;;
16737;SDS011;17906;47.684;10.806;2023-02-15T12:19:52;1.30;;;0.82;;
16737;SDS011;17906;47.684;10.806;2023-02-15T12:22:23;2.00;;;1.10;;
16737;SDS011;17906;47.684;10.806;2023-02-15T12:24:52;1.52;;;0.90;;
16737;SDS011;17906;47.684;10.806;2023-02-15T12:27:22;1.63;;;0.90;;
16737;SDS011;17906;47.684;10.806;2023-02-15T12:29:53;3.03;;;1.10;;
16737;SDS011;17906;47.684;10.806;2023-02-15T12:32:27;2.30;;;0.80;;
16737;SDS011;17906;47.684;10.806;2023-02-15T12:34:59;1.58;;;0.88;;
16737;SDS011;17906;47.684;10.806;2023-02-15T12:37:28;1.40;;;0.85;;
16737;SDS011;17906;47.684;10.806;2023-02-15T12:39:59;1.60;;;0.75;;
16737;SDS011;17906;47.684;10.806;2023-02-15T12:42:28;2.67;;;0.82;;
16737;SDS011;17906;47.684;10.806;2023-02-15T12:45:20;1.20;;;0.88;;
16737;SDS011;17906;47.684;10.806;2023-02-15T12:47:50;1.33;;;0.70;;
16737;SDS011;17906;47.684;10.806;2023-02-15T12:50:36;2.35;;;1.10;;
16737;SDS011;17906;47.684;10.806;2023-02-15T12:53:07;4.38;;;1.92;;
16737;SDS011;17906;47.684;10.806;2023-02-15T12:55:42;3.65;;;1.10;;
16737;SDS011;17906;47.684;10.806;2023-02-15T12:58:17;1.38;;;0.85;;
16737;SDS011;17906;47.684;10.806;2023-02-15T13:00:45;1.88;;;0.90;;
16737;SDS011;17906;47.684;10.806;2023-02-15T13:03:16;3.10;;;0.93;;
16737;SDS011;17906;47.684;10.806;2023-02-15T13:05:46;1.98;;;0.95;;
16737;SDS011;17906;47.684;10.806;2023-02-15T13:08:17;1.73;;;0.90;;
16737;SDS011;17906;47.684;10.806;2023-02-15T13:10:52;3.03;;;0.85;;
16737;SDS011;17906;47.684;10.806;2023-02-15T13:13:21;1.98;;;0.88;;
16737;SDS011;17906;47.684;10.806;2023-02-15T13:15:51;1.40;;;0.90;;
16737;SDS011;17906;47.684;10.806;2023-02-15T13:18:23;2.58;;;1.00;;
16737;SDS011;17906;47.684;10.806;2023-02-15T13:21:09;1.00;;;0.73;;
16737;SDS011;17906;47.684;10.806;2023-02-15T13:23:38;2.72;;;0.90;;
16737;SDS011;17906;47.684;10.806;2023-02-15T13:26:10;1.20;;;0.80;;
16737;SDS011;17906;47.684;10.806;2023-02-15T13:28:44;2.60;;;0.95;;
16737;SDS011;17906;47.684;10.806;2023-02-15T13:31:13;1.13;;;0.90;;
16737;SDS011;17906;47.684;10.806;2023-02-15T13:33:44;1.05;;;0.70;;
16737;SDS011;17906;47.684;10.806;2023-02-15T13:36:17;0.95;;;0.60;;
16737;SDS011;17906;47.684;10.806;2023-02-15T13:38:52;0.95;;;0.68;;
16737;SDS011;17906;47.684;10.806;2023-02-15T13:41:30;4.15;;;0.98;;
16737;SDS011;17906;47.684;10.806;2023-02-15T13:44:02;2.07;;;0.93;;
16737;SDS011;17906;47.684;10.806;2023-02-15T13:46:42;1.23;;;0.80;;
16737;SDS011;17906;47.684;10.806;2023-02-15T13:49:17;1.70;;;0.85;;
16737;SDS011;17906;47.684;10.806;2023-02-15T13:51:54;2.00;;;1.17;;
16737;SDS011;17906;47.684;10.806;2023-02-15T13:54:33;5.45;;;0.98;;
16737;SDS011;17906;47.684;10.806;2023-02-15T13:57:16;1.10;;;0.70;;
16737;SDS011;17906;47.684;10.806;2023-02-15T14:00:02;1.33;;;0.80;;
16737;SDS011;17906;47.684;10.806;2023-02-15T14:02:44;4.20;;;2.33;;
16737;SDS011;17906;47.684;10.806;2023-02-15T14:05:35;1.60;;;0.68;;
16737;SDS011;17906;47.684;10.806;2023-02-15T14:08:18;1.53;;;0.90;;
16737;SDS011;17906;47.684;10.806;2023-02-15T14:10:57;1.10;;;0.60;;
16737;SDS011;17906;47.684;10.806;2023-02-15T14:13:33;2.65;;;0.90;;
16737;SDS011;17906;47.684;10.806;2023-02-15T14:16:12;1.17;;;0.80;;
16737;SDS011;17906;47.684;10.806;2023-02-15T14:18:46;3.05;;;0.90;;
16737;SDS011;17906;47.684;10.806;2023-02-15T14:21:18;1.48;;;0.80;;
16737;SDS011;17906;47.684;10.806;2023-02-15T14:23:59;2.17;;;0.60;;
16737;SDS011;17906;47.684;10.806;2023-02-15T14:26:36;0.73;;;0.52;;
16737;SDS011;17906;47.684;10.806;2023-02-15T14:29:11;2.13;;;0.85;;
16737;SDS011;17906;47.684;10.806;2023-02-15T14:31:47;2.08;;;0.90;;
16737;SDS011;17906;47.684;10.806;2023-02-15T14:34:18;4.32;;;0.90;;
16737;SDS011;17906;47.684;10.806;2023-02-15T14:36:48;3.22;;;0.90;;
16737;SDS011;17906;47.684;10.806;2023-02-15T14:39:24;1.98;;;0.88;;
16737;SDS011;17906;47.684;10.806;2023-02-15T14:42:18;3.75;;;0.90;;
16737;SDS011;17906;47.684;10.806;2023-02-15T14:44:52;2.83;;;0.88;;
16737;SDS011;17906;47.684;10.806;2023-02-15T14:47:26;1.30;;;0.80;;
16737;SDS011;17906;47.684;10.806;2023-02-15T14:49:59;2.03;;;0.70;;
16737;SDS011;17906;47.684;10.806;2023-02-15T14:52:25;1.15;;;0.75;;
16737;SDS011;17906;47.684;10.806;2023-02-15T14:54:53;2.28;;;0.98;;
16737;SDS011;17906;47.684;10.806;2023-02-15T14:57:27;2.20;;;0.93;;
16737;SDS011;17906;47.684;10.806;2023-02-15T14:59:57;1.25;;;0.50;;
16737;SDS011;17906;47.684;10.806;2023-02-15T15:02:26;2.10;;;1.00;;
16737;SDS011;17906;47.684;10.806;2023-02-15T15:04:56;1.85;;;0.70;;
16737;SDS011;17906;47.684;10.806;2023-02-15T15:07:27;2.10;;;0.90;;